Time;durP1;ratioP1;P1;durP2;ratioP2;P2;SDS_P1;SDS_P2;PMS_P1;PMS_P2;Temp;Humidity;BMP_temperature;BMP_pressure;BME280_temperature;BME280_humidity;BME280_pressure;Samples;Min_cycle;Max_cycle;Signal;HPM_P1;HPM_P2
2022/10/15 00:03:34;;;;;;;;;;;;;;;15.60;100.00;98515.19;8369262;28;20386;-76
2022/10/15 00:07:35;;;;;;;;;;;;;;;15.60;100.00;98512.56;8346880;28;19989;-76
2022/10/15 00:11:38;;;;;;;;;;;;;;;15.62;100.00;98524.72;8372478;28;20013;-76
2022/10/15 00:15:40;;;;;;;;;;;;;;;15.63;100.00;98513.34;8340219;28;19932;-76
2022/10/15 00:19:41;;;;;;;;;;;;;;;15.65;100.00;98519.34;8357198;28;19928;-75
2022/10/15 00:23:43;;;;;;;;;;;;;;;15.68;100.00;98526.22;8364307;28;19933;-76
2022/10/15 00:27:44;;;;;;;;;;;;;;;15.70;100.00;98532.25;8372716;28;19942;-75
2022/10/15 00:31:45;;;;;;;;;;;;;;;15.72;100.00;98533.03;8361889;28;19954;-76
2022/10/15 00:35:56;;;;;;;;;;;;;;;15.71;100.00;98526.97;8378038;28;20514;-77
2022/10/15 00:39:57;;;;;;;;;;;;;;;15.73;100.00;98526.91;8347512;28;20024;-76
2022/10/15 00:44:00;;;;;;;;;;;;;;;15.74;100.00;98523.38;8359724;28;20407;-76
2022/10/15 00:48:01;;;;;;;;;;;;;;;15.76;100.00;98518.91;8351909;28;19932;-76
2022/10/15 00:52:05;;;;;;;;;;;;;;;15.77;100.00;98525.00;8367690;28;20257;-76
2022/10/15 00:56:06;;;;;;;;;;;;;;;15.78;100.00;98530.19;8358461;28;19940;-76
2022/10/15 01:00:09;;;;;;;;;;;;;;;15.81;100.00;98531.84;8369564;28;19955;-77
2022/10/15 01:04:11;;;;;;;;;;;;;;;15.84;100.00;98537.81;8364391;28;20384;-76
2022/10/15 01:08:13;;;;;;;;;;;;;;;15.85;100.00;98536.03;8371514;28;19932;-77
2022/10/15 01:12:24;;;;;;;;;;;;;;;15.87;100.00;98534.22;8359279;28;20322;-76
2022/10/15 01:16:44;;;;;;;;;;;;;;;15.86;100.00;98535.97;8331864;28;19941;-76
2022/10/15 01:20:58;;;;;;;;;;;;;;;15.87;100.00;98536.84;8374319;28;20371;-76
2022/10/15 01:25:09;;;;;;;;;;;;;;;15.89;100.00;98542.84;8366383;28;19947;-76
2022/10/15 01:29:24;;;;;;;;;;;;;;;15.89;100.00;98535.84;8341296;28;19972;-76
2022/10/15 01:33:35;;;;;;;;;;;;;;;15.89;100.00;98529.78;8359294;28;19932;-75
2022/10/15 01:37:40;;;;;;;;;;;;;;;15.89;100.00;98528.00;8352559;28;19929;-76
2022/10/15 01:42:07;;;;;;;;;;;;;;;15.90;100.00;98531.47;8359727;28;19928;-76
2022/10/15 01:46:13;;;;;;;;;;;;;;;15.90;100.00;98536.72;8363327;28;19987;-76
2022/10/15 01:50:15;;;;;;;;;;;;;;;15.88;100.00;98542.00;8358839;28;19935;-76
2022/10/15 01:54:18;;;;;;;;;;;;;;;15.85;100.00;98541.28;8354762;28;20801;-76
2022/10/15 01:58:20;;;;;;;;;;;;;;;15.83;100.00;98550.97;8331272;28;19985;-76
2022/10/15 02:02:22;;;;;;;;;;;;;;;15.83;100.00;98549.19;8356082;28;19990;-76
2022/10/15 02:06:30;;;;;;;;;;;;;;;15.81;100.00;98552.78;8368110;28;19947;-76
2022/10/15 02:10:46;;;;;;;;;;;;;;;15.77;100.00;98549.41;8332056;28;20309;-76
2022/10/15 02:15:10;;;;;;;;;;;;;;;15.76;100.00;98545.09;8356763;28;19989;-75
2022/10/15 02:19:24;;;;;;;;;;;;;;;15.77;100.00;98556.41;8349426;28;19990;-76
2022/10/15 02:23:44;;;;;;;;;;;;;;;15.76;100.00;98552.94;8357926;28;20444;-76
2022/10/15 02:27:47;;;;;;;;;;;;;;;15.76;100.00;98563.41;8363616;28;19981;-76
2022/10/15 02:31:49;;;;;;;;;;;;;;;15.76;100.00;98565.19;8350776;28;19994;-76
2022/10/15 02:35:50;;;;;;;;;;;;;;;15.72;100.00;98564.44;8331070;28;20695;-76
2022/10/15 02:39:52;;;;;;;;;;;;;;;15.71;100.00;98579.31;8331713;28;19925;-76
2022/10/15 02:43:53;;;;;;;;;;;;;;;15.70;100.00;98574.13;8328731;28;20309;-76
2022/10/15 02:47:55;;;;;;;;;;;;;;;15.69;100.00;98585.50;8329781;28;20353;-76
2022/10/15 02:51:56;;;;;;;;;;;;;;;15.63;100.00;98581.38;8330969;28;19984;-75
2022/10/15 02:55:57;;;;;;;;;;;;;;;15.61;100.00;98585.78;8313739;28;20342;-75
2022/10/15 02:59:59;;;;;;;;;;;;;;;15.59;100.00;98574.53;8329139;28;19937;-75
2022/10/15 03:04:00;;;;;;;;;;;;;;;15.57;100.00;98578.94;8321641;28;20357;-76
2022/10/15 03:08:01;;;;;;;;;;;;;;;15.55;100.00;98577.28;8327106;28;19947;-75
2022/10/15 03:12:03;;;;;;;;;;;;;;;15.54;100.00;98578.19;8321265;28;19991;-75
2022/10/15 03:16:05;;;;;;;;;;;;;;;15.52;100.00;98585.25;8320118;28;19928;-75
2022/10/15 03:20:07;;;;;;;;;;;;;;;15.49;100.00;98594.09;8317384;28;19933;-76
2022/10/15 03:24:08;;;;;;;;;;;;;;;15.49;100.00;98588.00;8325122;28;19929;-75
2022/10/15 03:28:10;;;;;;;;;;;;;;;15.47;100.00;98588.06;8324861;28;19983;-75
2022/10/15 03:32:11;;;;;;;;;;;;;;;15.45;100.00;98591.66;8329338;28;19929;-76
2022/10/15 03:36:12;;;;;;;;;;;;;;;15.42;100.00;98596.06;8357533;28;19940;-75
2022/10/15 03:40:14;;;;;;;;;;;;;;;15.38;100.00;98602.31;8368360;28;20462;-75
2022/10/15 03:44:15;;;;;;;;;;;;;;;15.37;100.00;98604.97;8373683;28;20359;-75
2022/10/15 03:48:17;;;;;;;;;;;;;;;15.32;100.00;98607.78;8357598;28;19989;-75
2022/10/15 03:52:18;;;;;;;;;;;;;;;15.28;100.00;98614.03;8362480;28;19929;-75
2022/10/15 03:56:20;;;;;;;;;;;;;;;15.20;100.00;98610.81;8343794;28;19935;-75
2022/10/15 04:00:21;;;;;;;;;;;;;;;15.17;100.00;98610.94;8350000;28;19935;-75
2022/10/15 04:04:22;;;;;;;;;;;;;;;15.14;100.00;98611.06;8342759;28;20027;-75
2022/10/15 04:08:24;;;;;;;;;;;;;;;15.09;100.00;98616.44;8369479;28;19985;-75
2022/10/15 04:12:25;;;;;;;;;;;;;;;15.06;100.00;98616.53;8377121;28;19939;-75
2022/10/15 04:16:27;;;;;;;;;;;;;;;15.04;100.00;98617.50;8369056;28;19942;-75
2022/10/15 04:20:29;;;;;;;;;;;;;;;14.98;100.00;98618.56;8356997;28;19928;-75
2022/10/15 04:24:30;;;;;;;;;;;;;;;14.94;100.00;98618.75;8375114;28;19928;-75
2022/10/15 04:28:32;;;;;;;;;;;;;;;14.93;100.00;98624.88;8378826;28;19954;-76
2022/10/15 04:32:33;;;;;;;;;;;;;;;14.92;100.00;98633.63;8340030;28;19928;-75
2022/10/15 04:36:35;;;;;;;;;;;;;;;14.89;100.00;98621.50;8316422;28;20263;-76
2022/10/15 04:40:37;;;;;;;;;;;;;;;14.87;100.00;98636.38;8324385;28;19929;-75
2022/10/15 04:44:39;;;;;;;;;;;;;;;14.87;100.00;98635.50;8327055;28;19978;-75
2022/10/15 04:48:40;;;;;;;;;;;;;;;14.86;100.00;98631.19;8319824;28;20010;-75
2022/10/15 04:52:43;;;;;;;;;;;;;;;14.87;100.00;98627.69;8331132;28;19928;-75
2022/10/15 04:56:45;;;;;;;;;;;;;;;14.85;100.00;98630.34;8330841;28;20261;-75
2022/10/15 05:00:46;;;;;;;;;;;;;;;14.84;100.00;98633.88;8314655;28;20621;-75
2022/10/15 05:04:47;;;;;;;;;;;;;;;14.82;100.00;98647.00;8325983;28;20349;-75
2022/10/15 05:08:50;;;;;;;;;;;;;;;14.82;100.00;98648.75;8296594;28;19933;-75
2022/10/15 05:12:52;;;;;;;;;;;;;;;14.79;100.00;98644.47;8322444;28;19944;-75
2022/10/15 05:16:57;;;;;;;;;;;;;;;14.77;100.00;98651.53;8319280;28;19928;-75
2022/10/15 05:21:00;;;;;;;;;;;;;;;14.76;100.00;98651.56;8326081;28;19929;-75
2022/10/15 05:25:01;;;;;;;;;;;;;;;14.73;100.00;98649.94;8325718;28;20424;-76
2022/10/15 05:29:03;;;;;;;;;;;;;;;14.72;100.00;98658.66;8321833;28;20818;-74
2022/10/15 05:33:05;;;;;;;;;;;;;;;14.73;100.00;98651.69;8320921;28;19929;-74
2022/10/15 05:37:06;;;;;;;;;;;;;;;14.74;100.00;98661.22;8355300;28;19932;-76
2022/10/15 05:41:07;;;;;;;;;;;;;;;14.70;100.00;98655.22;8336406;28;19928;-76
2022/10/15 05:45:09;;;;;;;;;;;;;;;14.69;100.00;98661.34;8320111;28;20344;-76
2022/10/15 05:49:10;;;;;;;;;;;;;;;14.69;100.00;98661.34;8337393;28;19929;-74
2022/10/15 05:53:11;;;;;;;;;;;;;;;14.69;100.00;98655.28;8341730;28;19932;-76
2022/10/15 05:57:12;;;;;;;;;;;;;;;14.70;100.00;98659.59;8343880;28;19937;-76
2022/10/15 06:01:14;;;;;;;;;;;;;;;14.69;100.00;98660.50;8335022;28;19929;-76
2022/10/15 06:05:15;;;;;;;;;;;;;;;14.67;100.00;98662.31;8339215;28;20051;-77
2022/10/15 06:09:16;;;;;;;;;;;;;;;14.66;100.00;98666.69;8338008;28;19929;-76
2022/10/15 06:13:18;;;;;;;;;;;;;;;14.65;100.00;98657.13;8342960;28;19986;-76
2022/10/15 06:17:19;;;;;;;;;;;;;;;14.67;100.00;98657.94;8319673;28;19929;-76
2022/10/15 06:21:21;;;;;;;;;;;;;;;14.69;100.00;98666.59;8324071;28;19953;-76
2022/10/15 06:25:23;;;;;;;;;;;;;;;14.71;100.00;98666.53;8342533;28;21378;-77
2022/10/15 06:29:24;;;;;;;;;;;;;;;14.71;100.00;98670.00;8341883;28;20262;-76
2022/10/15 06:33:26;;;;;;;;;;;;;;;14.72;100.00;98663.91;8332144;28;20020;-76
2022/10/15 06:37:28;;;;;;;;;;;;;;;14.75;100.00;98673.38;8373170;28;19932;-77
2022/10/15 06:41:29;;;;;;;;;;;;;;;14.76;100.00;98668.13;8352655;28;20537;-76
2022/10/15 06:45:31;;;;;;;;;;;;;;;14.77;100.00;98680.28;8350520;28;20440;-77
2022/10/15 06:49:32;;;;;;;;;;;;;;;14.79;100.00;98669.75;8368635;28;19928;-77
2022/10/15 06:53:33;;;;;;;;;;;;;;;14.79;100.00;98678.47;8330324;28;20765;-76
2022/10/15 06:57:35;;;;;;;;;;;;;;;14.83;100.00;98694.88;8363557;28;20312;-77
2022/10/15 07:01:36;;;;;;;;;;;;;;;14.83;100.00;98689.66;8352016;28;20510;-75
2022/10/15 07:05:42;;;;;;;;;;;;;;;14.85;100.00;98695.69;8352705;28;20334;-77
2022/10/15 07:09:45;;;;;;;;;;;;;;;14.84;100.00;98693.13;8367749;28;19925;-76
2022/10/15 07:13:46;;;;;;;;;;;;;;;14.86;100.00;98686.94;8362113;28;19991;-76
2022/10/15 07:17:49;;;;;;;;;;;;;;;14.91;100.00;98686.81;8348945;28;20265;-74
2022/10/15 07:21:50;;;;;;;;;;;;;;;14.96;100.00;98693.59;8376020;28;19933;-76
2022/10/15 07:25:52;;;;;;;;;;;;;;;14.97;100.00;98690.06;8351585;28;19971;-76
2022/10/15 07:29:53;;;;;;;;;;;;;;;14.99;100.00;98690.00;8353433;28;19928;-76
2022/10/15 07:33:54;;;;;;;;;;;;;;;15.01;100.00;98690.81;8345845;28;19978;-76
2022/10/15 07:37:58;;;;;;;;;;;;;;;15.03;100.00;98700.31;8371342;28;19990;-76
2022/10/15 07:42:00;;;;;;;;;;;;;;;15.07;100.00;98694.06;8373792;28;19962;-76
2022/10/15 07:51:29;;;;;;;;;;;;;;;15.24;100.00;98701.34;8366417;28;20395;-76
2022/10/15 07:55:30;;;;;;;;;;;;;;;15.31;100.00;98700.22;8376570;28;20353;-76
2022/10/15 07:59:32;;;;;;;;;;;;;;;15.34;100.00;98709.72;8366985;28;19935;-77
2022/10/15 08:03:34;;;;;;;;;;;;;;;15.39;100.00;98726.13;8364636;28;19963;-76
2022/10/15 08:07:35;;;;;;;;;;;;;;;15.44;100.00;98719.00;8365938;28;19929;-76
2022/10/15 08:11:36;;;;;;;;;;;;;;;15.51;100.00;98728.31;8355384;28;20233;-76
2022/10/15 08:15:41;;;;;;;;;;;;;;;15.56;100.00;98725.53;8352820;28;19942;-76
2022/10/15 08:19:42;;;;;;;;;;;;;;;15.60;100.00;98727.16;8376925;28;19932;-76
2022/10/15 08:23:43;;;;;;;;;;;;;;;15.63;100.00;98727.94;8371910;28;20973;-76
2022/10/15 08:27:44;;;;;;;;;;;;;;;15.74;100.00;98719.69;8370101;28;19928;-76
2022/10/15 08:31:46;;;;;;;;;;;;;;;15.78;100.00;98729.13;8373837;28;19932;-76
2022/10/15 08:35:47;;;;;;;;;;;;;;;15.86;100.00;98724.47;8315552;28;20417;-77
2022/10/15 08:39:48;;;;;;;;;;;;;;;15.95;100.00;98724.13;8311653;28;19979;-77
2022/10/15 08:43:50;;;;;;;;;;;;;;;16.02;100.00;98723.00;8315765;28;19936;-77
2022/10/15 08:47:51;;;;;;;;;;;;;;;16.17;100.00;98720.72;8300152;28;19929;-77
2022/10/15 08:51:56;;;;;;;;;;;;;;;16.26;100.00;98720.38;8328392;28;19933;-77
2022/10/15 08:56:00;;;;;;;;;;;;;;;16.28;100.00;98723.78;8312041;28;19960;-76
2022/10/15 09:00:10;;;;;;;;;;;;;;;16.30;100.00;98717.56;8306006;28;19932;-76
2022/10/15 09:04:18;;;;;;;;;;;;;;;16.30;100.00;98714.94;8321161;28;19939;-76
2022/10/15 09:08:32;;;;;;;;;;;;;;;16.28;100.00;98708.91;8319324;28;19968;-76
2022/10/15 09:12:33;;;;;;;;;;;;;;;16.29;100.00;98715.84;8305826;28;19929;-77
2022/10/15 09:16:38;;;;;;;;;;;;;;;16.31;100.00;98713.16;8302428;28;19929;-73
2022/10/15 09:20:39;;;;;;;;;;;;;;;16.28;100.00;98718.53;8324574;28;19929;-76
2022/10/15 09:24:40;;;;;;;;;;;;;;;16.35;100.00;98713.94;8311809;28;20044;-75
2022/10/15 09:29:04;;;;;;;;;;;;;;;16.45;100.00;98710.88;8310115;28;19929;-76
2022/10/15 09:33:10;;;;;;;;;;;;;;;16.59;100.00;98719.06;8299984;28;19965;-76
2022/10/15 09:37:18;;;;;;;;;;;;;;;16.78;100.00;98732.31;8304781;28;19929;-76
2022/10/15 09:41:38;;;;;;;;;;;;;;;16.76;100.00;98728.06;8307361;28;20043;-76
2022/10/15 09:45:39;;;;;;;;;;;;;;;16.81;100.00;98729.56;8316099;28;20439;-76
2022/10/15 09:49:41;;;;;;;;;;;;;;;16.83;100.00;98734.75;8310517;28;19990;-76
2022/10/15 09:53:49;;;;;;;;;;;;;;;16.87;100.00;98726.69;8306194;28;19996;-76
2022/10/15 09:57:53;;;;;;;;;;;;;;;16.90;100.00;98717.88;8313552;28;20677;-76
2022/10/15 10:02:16;;;;;;;;;;;;;;;16.89;100.00;98722.25;8300502;28;19929;-76
2022/10/15 10:06:19;;;;;;;;;;;;;;;17.00;100.00;98721.81;8305588;28;19929;-76
2022/10/15 10:10:25;;;;;;;;;;;;;;;16.95;99.49;98736.88;8309221;28;19995;-76
2022/10/15 10:14:31;;;;;;;;;;;;;;;16.82;99.67;98726.03;8326875;28;19960;-77
2022/10/15 10:18:33;;;;;;;;;;;;;;;16.82;99.73;98730.41;8316418;28;20003;-77
2022/10/15 10:22:44;;;;;;;;;;;;;;;16.78;100.00;98734.94;8318303;28;19933;-76
2022/10/15 10:26:51;;;;;;;;;;;;;;;16.62;100.00;98733.81;8306675;28;20413;-77
2022/10/15 10:30:55;;;;;;;;;;;;;;;16.54;100.00;98738.50;8299783;28;20037;-77
2022/10/15 10:34:58;;;;;;;;;;;;;;;16.52;100.00;98730.72;8348570;28;19933;-76
2022/10/15 10:38:59;;;;;;;;;;;;;;;16.52;100.00;98735.09;8368230;28;19939;-76
2022/10/15 10:43:09;;;;;;;;;;;;;;;16.47;100.00;98731.78;8345306;28;19985;-77
2022/10/15 10:47:13;;;;;;;;;;;;;;;16.40;100.00;98741.66;8358628;28;20273;-74
2022/10/15 10:51:16;;;;;;;;;;;;;;;16.31;100.00;98737.59;8379937;28;19928;-76
2022/10/15 10:55:23;;;;;;;;;;;;;;;16.26;100.00;98738.69;8348942;28;19940;-77
2022/10/15 10:59:35;;;;;;;;;;;;;;;16.27;100.00;98746.50;8372568;28;19990;-76
2022/10/15 11:03:44;;;;;;;;;;;;;;;16.29;100.00;98739.44;8372928;28;20638;-75
2022/10/15 11:08:08;;;;;;;;;;;;;;;16.24;100.00;98740.53;8376255;28;20035;-76
2022/10/15 11:12:18;;;;;;;;;;;;;;;16.10;100.00;98742.81;8342235;28;20348;-76
2022/10/15 11:16:25;;;;;;;;;;;;;;;16.00;100.00;98742.31;8374711;28;20002;-77
2022/10/15 11:20:30;;;;;;;;;;;;;;;16.01;100.00;98741.41;8374068;28;20466;-77
2022/10/15 11:25:10;;;;;;;;;;;;;;;16.08;100.00;98732.38;8371580;28;19994;-76
2022/10/15 11:29:17;;;;;;;;;;;;;;;16.26;100.00;98739.56;8361971;28;19994;-77
2022/10/15 11:33:22;;;;;;;;;;;;;;;16.34;100.00;98726.19;8356583;28;19982;-76
2022/10/15 11:37:37;;;;;;;;;;;;;;;16.33;100.00;98727.91;8372579;28;19937;-76
2022/10/15 11:41:43;;;;;;;;;;;;;;;16.43;100.00;98720.56;8381568;28;19982;-76
2022/10/15 11:45:54;;;;;;;;;;;;;;;16.42;100.00;98721.50;8366528;28;19932;-77
2022/10/15 11:50:07;;;;;;;;;;;;;;;16.43;100.00;98725.81;8376769;28;20006;-76
2022/10/15 11:54:28;;;;;;;;;;;;;;;16.44;100.00;98734.53;8374658;28;19928;-76
2022/10/15 11:58:32;;;;;;;;;;;;;;;16.45;100.00;98723.97;8379562;28;19929;-76
2022/10/15 12:02:34;;;;;;;;;;;;;;;16.48;100.00;98723.84;8367639;28;20089;-77
2022/10/15 12:06:39;;;;;;;;;;;;;;;16.51;100.00;98715.88;8346065;28;19928;-77
2022/10/15 12:11:05;;;;;;;;;;;;;;;16.47;100.00;98716.91;8371537;28;19982;-77
2022/10/15 12:15:06;;;;;;;;;;;;;;;16.56;100.00;98721.81;8349918;28;19942;-77
2022/10/15 12:19:11;;;;;;;;;;;;;;;16.54;100.00;98713.16;8333380;28;20037;-76
2022/10/15 12:23:22;;;;;;;;;;;;;;;16.53;100.00;98705.34;8344035;28;20343;-77
2022/10/15 12:27:23;;;;;;;;;;;;;;;16.47;100.00;98703.81;8356766;28;19928;-77
2022/10/15 12:31:41;;;;;;;;;;;;;;;16.54;100.00;98692.19;8358982;28;19932;-77
2022/10/15 12:35:43;;;;;;;;;;;;;;;16.62;100.00;98697.13;8355888;28;20761;-77
2022/10/15 12:39:44;;;;;;;;;;;;;;;16.68;100.00;98690.78;8338389;28;20909;-76
2022/10/15 12:44:04;;;;;;;;;;;;;;;16.79;100.00;98696.47;8341172;28;20021;-77
2022/10/15 12:48:05;;;;;;;;;;;;;;;16.82;100.00;98705.06;8336952;28;19929;-76
2022/10/15 12:52:25;;;;;;;;;;;;;;;16.74;100.00;98691.41;8317201;28;20021;-76
2022/10/15 12:56:38;;;;;;;;;;;;;;;16.84;100.00;98697.97;8349273;28;20657;-74
2022/10/15 13:00:41;;;;;;;;;;;;;;;16.87;100.00;98694.38;8330513;28;19974;-77
2022/10/15 13:04:43;;;;;;;;;;;;;;;16.80;100.00;98704.28;8337442;28;20015;-77
2022/10/15 13:09:04;;;;;;;;;;;;;;;16.76;100.00;98688.72;8340960;28;19932;-77
2022/10/15 13:13:12;;;;;;;;;;;;;;;16.75;100.00;98681.78;8340594;28;20332;-77
2022/10/15 13:17:14;;;;;;;;;;;;;;;16.78;100.00;98687.75;8328057;28;19933;-77
2022/10/15 13:21:16;;;;;;;;;;;;;;;16.79;100.00;98685.97;8340542;28;19978;-77
2022/10/15 13:25:18;;;;;;;;;;;;;;;16.87;100.00;98683.88;8321774;28;19940;-77
2022/10/15 13:29:37;;;;;;;;;;;;;;;17.00;100.00;98700.81;8337346;28;20011;-77
2022/10/15 13:33:40;;;;;;;;;;;;;;;17.08;100.00;98690.88;8332563;28;19940;-77
2022/10/15 13:37:42;;;;;;;;;;;;;;;17.08;100.00;98693.50;8372888;28;19928;-77
2022/10/15 13:41:44;;;;;;;;;;;;;;;17.02;100.00;98692.88;8372932;28;19993;-77
2022/10/15 13:45:48;;;;;;;;;;;;;;;16.96;100.00;98675.66;8350165;28;19956;-77
2022/10/15 13:49:50;;;;;;;;;;;;;;;17.02;100.00;98678.00;8354307;28;19956;-77
2022/10/15 13:53:54;;;;;;;;;;;;;;;17.03;100.00;98678.84;8374766;28;19928;-77
2022/10/15 13:58:04;;;;;;;;;;;;;;;17.03;100.00;98677.09;8352080;28;19928;-77
2022/10/15 14:02:11;;;;;;;;;;;;;;;17.02;100.00;98693.75;8350188;28;20556;-77
2022/10/15 14:06:17;;;;;;;;;;;;;;;16.99;100.00;98683.38;8375760;28;20557;-77
2022/10/15 14:10:18;;;;;;;;;;;;;;;17.03;100.00;98677.09;8357837;28;20331;-77
2022/10/15 14:14:27;;;;;;;;;;;;;;;17.00;100.00;98685.09;8354961;28;19982;-77
2022/10/15 14:18:35;;;;;;;;;;;;;;;16.97;100.00;98700.09;8366479;28;20010;-76
2022/10/15 14:22:38;;;;;;;;;;;;;;;16.84;100.00;98708.47;8373267;28;19928;-77
2022/10/15 14:26:42;;;;;;;;;;;;;;;16.84;100.00;98705.00;8364236;28;19925;-77
2022/10/15 14:30:49;;;;;;;;;;;;;;;16.83;100.00;98709.38;8361065;28;19935;-77
2022/10/15 14:34:56;;;;;;;;;;;;;;;16.89;100.00;98703.91;8370043;28;19950;-76
2022/10/15 14:39:17;;;;;;;;;;;;;;;16.94;100.00;98715.97;8362652;28;20417;-77
2022/10/15 14:43:27;;;;;;;;;;;;;;;16.97;100.00;98705.34;8366872;28;19935;-77
2022/10/15 14:47:32;;;;;;;;;;;;;;;16.98;100.00;98710.53;8349503;28;19939;-77
2022/10/15 14:51:34;;;;;;;;;;;;;;;16.93;100.00;98704.63;8342786;28;19978;-77
2022/10/15 14:55:40;;;;;;;;;;;;;;;16.92;100.00;98703.78;8346735;28;19928;-76
2022/10/15 14:59:42;;;;;;;;;;;;;;;16.89;100.00;98701.28;8350896;28;20022;-76
2022/10/15 15:03:52;;;;;;;;;;;;;;;16.84;100.00;98705.84;8337843;28;19986;-76
2022/10/15 15:08:01;;;;;;;;;;;;;;;16.80;100.00;98701.66;8329461;28;20324;-76
2022/10/15 15:12:14;;;;;;;;;;;;;;;16.80;100.00;98700.78;8370052;28;19935;-77
2022/10/15 15:16:17;;;;;;;;;;;;;;;16.81;100.00;98710.38;8329021;28;20319;-77
2022/10/15 15:20:21;;;;;;;;;;;;;;;16.80;100.00;98711.28;8372521;28;19990;-76
2022/10/15 15:24:22;;;;;;;;;;;;;;;16.74;100.00;98709.78;8353441;28;20333;-76
2022/10/15 15:28:25;;;;;;;;;;;;;;;16.70;100.00;98715.22;8371468;28;19958;-76
2022/10/15 15:32:26;;;;;;;;;;;;;;;16.65;100.00;98715.34;8366159;28;19934;-76
2022/10/15 15:36:28;;;;;;;;;;;;;;;16.62;100.00;98711.06;8373030;28;20615;-76
2022/10/15 15:40:29;;;;;;;;;;;;;;;16.61;100.00;98711.97;8354127;28;19928;-76
2022/10/15 15:44:30;;;;;;;;;;;;;;;16.54;100.00;98720.16;8370856;28;19928;-76
2022/10/15 15:48:32;;;;;;;;;;;;;;;16.53;100.00;98721.94;8355745;28;20001;-76
2022/10/15 15:52:33;;;;;;;;;;;;;;;16.53;100.00;98715.84;8373067;28;19970;-76
2022/10/15 15:56:40;;;;;;;;;;;;;;;16.51;100.00;98715.00;8369701;28;20345;-76
2022/10/15 16:00:41;;;;;;;;;;;;;;;16.51;100.00;98717.63;8366170;28;20606;-76
2022/10/15 16:04:44;;;;;;;;;;;;;;;16.46;100.00;98712.59;8362746;28;19940;-76
2022/10/15 16:08:49;;;;;;;;;;;;;;;16.44;100.00;98717.03;8378148;28;19929;-76
2022/10/15 16:12:51;;;;;;;;;;;;;;;16.44;100.00;98724.91;8340916;28;19929;-76
2022/10/15 16:16:53;;;;;;;;;;;;;;;16.43;100.00;98724.97;8375819;28;20424;-76
2022/10/15 16:20:58;;;;;;;;;;;;;;;16.41;100.00;98732.88;8358353;28;20042;-76
2022/10/15 16:25:00;;;;;;;;;;;;;;;16.40;100.00;98727.69;8353585;28;20023;-76
2022/10/15 16:29:01;;;;;;;;;;;;;;;16.40;100.00;98727.69;8378803;28;19986;-76
2022/10/15 16:33:05;;;;;;;;;;;;;;;16.39;100.00;98734.72;8375451;28;19934;-76
2022/10/15 16:37:10;;;;;;;;;;;;;;;16.38;100.00;98740.00;8341005;28;19959;-76
2022/10/15 16:41:12;;;;;;;;;;;;;;;16.39;100.00;98744.34;8346315;28;19986;-76
2022/10/15 16:45:13;;;;;;;;;;;;;;;16.31;100.00;98747.22;8344091;28;19982;-76
2022/10/15 16:49:14;;;;;;;;;;;;;;;16.33;100.00;98746.25;8330092;28;19994;-76
2022/10/15 16:53:16;;;;;;;;;;;;;;;16.35;100.00;98745.38;8342862;28;19939;-76
2022/10/15 16:57:17;;;;;;;;;;;;;;;16.36;100.00;98752.31;8337448;28;20349;-76
2022/10/15 17:01:20;;;;;;;;;;;;;;;16.35;100.00;98759.34;8336449;28;19929;-76
2022/10/15 17:05:21;;;;;;;;;;;;;;;16.32;100.00;98767.28;8337011;28;19936;-76
2022/10/15 17:09:23;;;;;;;;;;;;;;;16.33;100.00;98769.84;8335976;28;20417;-76
2022/10/15 17:13:24;;;;;;;;;;;;;;;16.33;100.00;98769.00;8339551;28;19929;-76
2022/10/15 17:17:27;;;;;;;;;;;;;;;16.33;100.00;98777.69;8338151;28;20022;-75
2022/10/15 17:21:29;;;;;;;;;;;;;;;16.34;100.00;98783.81;8338218;28;19994;-76
2022/10/15 17:25:30;;;;;;;;;;;;;;;16.35;100.00;98789.91;8337916;28;19932;-75
2022/10/15 17:29:32;;;;;;;;;;;;;;;16.33;100.00;98800.44;8335917;28;20413;-76
2022/10/15 17:33:34;;;;;;;;;;;;;;;16.35;100.00;98796.00;8331335;28;19932;-75
2022/10/15 17:37:37;;;;;;;;;;;;;;;16.35;100.00;98795.16;8354248;28;20843;-75
2022/10/15 17:41:39;;;;;;;;;;;;;;;16.35;100.00;98801.25;8356080;28;19940;-76
2022/10/15 17:45:40;;;;;;;;;;;;;;;16.36;100.00;98809.97;8348494;28;19925;-76
2022/10/15 17:49:41;;;;;;;;;;;;;;;16.33;100.00;98810.91;8331921;28;19933;-75
2022/10/15 17:53:43;;;;;;;;;;;;;;;16.34;100.00;98817.88;8368251;28;20019;-75
2022/10/15 17:57:45;;;;;;;;;;;;;;;16.34;100.00;98823.13;8349997;28;19939;-76
2022/10/15 18:01:47;;;;;;;;;;;;;;;16.33;100.00;98829.25;8356816;28;19994;-75
2022/10/15 18:06:13;;;;;;;;;;;;;;;16.32;100.00;98836.25;8339960;28;19987;-76
2022/10/15 18:10:15;;;;;;;;;;;;;;;16.31;100.00;98850.28;8354047;28;20384;-76
2022/10/15 18:14:20;;;;;;;;;;;;;;;16.29;100.00;98861.72;8341220;28;19959;-77
2022/10/15 18:18:27;;;;;;;;;;;;;;;16.25;100.00;98867.97;8342980;28;19929;-76
2022/10/15 18:22:29;;;;;;;;;;;;;;;16.26;100.00;98861.84;8354880;28;20699;-77
2022/10/15 18:26:31;;;;;;;;;;;;;;;16.25;100.00;98845.25;8323232;28;19928;-76
2022/10/15 18:30:35;;;;;;;;;;;;;;;16.27;100.00;98843.44;8320511;28;20380;-76
2022/10/15 18:34:36;;;;;;;;;;;;;;;16.27;100.00;98850.44;8339342;28;20436;-76
2022/10/15 18:38:39;;;;;;;;;;;;;;;16.25;100.00;98849.66;8348722;28;19928;-76
2022/10/15 18:42:40;;;;;;;;;;;;;;;16.24;100.00;98853.19;8351634;28;19928;-76
2022/10/15 18:46:48;;;;;;;;;;;;;;;16.22;100.00;98850.63;8346989;28;20566;-76
2022/10/15 18:50:51;;;;;;;;;;;;;;;16.17;100.00;98849.06;8370788;28;19940;-77
2022/10/15 18:54:53;;;;;;;;;;;;;;;16.10;100.00;98876.38;8358935;28;20296;-76
2022/10/15 18:58:54;;;;;;;;;;;;;;;16.05;100.00;98870.44;8362826;28;19986;-75
2022/10/15 19:02:56;;;;;;;;;;;;;;;16.01;100.00;98881.03;8330909;28;19989;-76
2022/10/15 19:07:01;;;;;;;;;;;;;;;16.01;100.00;98899.38;8362273;28;19989;-76
2022/10/15 19:11:07;;;;;;;;;;;;;;;15.99;100.00;98903.81;8366340;28;19938;-76
2022/10/15 19:15:09;;;;;;;;;;;;;;;15.98;100.00;98903.88;8337999;28;19948;-76
2022/10/15 19:19:11;;;;;;;;;;;;;;;15.94;100.00;98904.84;8370463;28;20396;-76
2022/10/15 19:23:13;;;;;;;;;;;;;;;15.91;100.00;98891.88;8372721;28;19959;-76
2022/10/15 19:27:14;;;;;;;;;;;;;;;15.86;100.00;98897.28;8362259;28;19986;-76
2022/10/15 19:31:23;;;;;;;;;;;;;;;15.83;100.00;98901.75;8362263;28;20329;-76
2022/10/15 19:35:24;;;;;;;;;;;;;;;15.80;100.00;98904.47;8340592;28;19929;-76
2022/10/15 19:39:26;;;;;;;;;;;;;;;15.76;100.00;98895.00;8339474;28;20391;-76
2022/10/15 19:43:27;;;;;;;;;;;;;;;15.73;100.00;98895.97;8344975;28;19995;-76
2022/10/15 19:47:28;;;;;;;;;;;;;;;15.71;100.00;98884.69;8328144;28;20356;-76
2022/10/15 19:51:30;;;;;;;;;;;;;;;15.66;100.00;98895.31;8357714;28;19928;-75
2022/10/15 19:55:32;;;;;;;;;;;;;;;15.63;100.00;98911.13;8345157;28;19968;-76
2022/10/15 19:59:33;;;;;;;;;;;;;;;15.62;100.00;98911.19;8341858;28;19990;-75
2022/10/15 20:03:34;;;;;;;;;;;;;;;15.60;100.00;98902.50;8312910;28;19929;-75
2022/10/15 20:07:35;;;;;;;;;;;;;;;15.57;100.00;98899.94;8345880;28;20968;-75
2022/10/15 20:11:37;;;;;;;;;;;;;;;15.60;100.00;98902.50;8343922;28;19928;-75
2022/10/15 20:15:45;;;;;;;;;;;;;;;15.61;100.00;98902.44;8326185;28;19933;-75
2022/10/15 20:19:47;;;;;;;;;;;;;;;15.63;100.00;98912.91;8339535;28;20563;-75
2022/10/15 20:23:49;;;;;;;;;;;;;;;15.65;100.00;98914.56;8334186;28;20179;-76
2022/10/15 20:27:51;;;;;;;;;;;;;;;15.67;100.00;98927.59;8337050;28;19939;-76
2022/10/15 20:31:54;;;;;;;;;;;;;;;15.63;100.00;98926.84;8335097;28;19928;-75
2022/10/15 20:36:15;;;;;;;;;;;;;;;15.62;100.00;98946.06;8354776;28;20377;-75
2022/10/15 20:40:23;;;;;;;;;;;;;;;15.61;100.00;98951.31;8353046;28;20039;-75
2022/10/15 20:44:25;;;;;;;;;;;;;;;15.60;100.00;98942.59;8339149;28;20318;-76
2022/10/15 20:48:27;;;;;;;;;;;;;;;15.60;100.00;98947.00;8309369;28;19936;-75
2022/10/15 20:52:30;;;;;;;;;;;;;;;15.57;100.00;98950.53;8316295;28;19929;-75
2022/10/15 20:56:32;;;;;;;;;;;;;;;15.56;100.00;98954.06;8344766;28;19929;-75
2022/10/15 21:00:33;;;;;;;;;;;;;;;15.57;100.00;98962.75;8328285;28;19929;-75
2022/10/15 21:04:34;;;;;;;;;;;;;;;15.57;100.00;98961.00;8337776;28;19933;-75